Terminal Aerodrome Forecast
Issued by NWS

Home | Current Version | Previous Version | Text Only | Print | Product List | Glossary On
Versions: 1 2 3 4 5 6 7 8 9 10 11 12 13 14 15 16 17 18 19 20 21 22 23 24 25 26 27 28
000
FTUS43 KDVN 310520
TAFBRL
TAF
KBRL 310520Z 3106/0106 10003KT P6SM SKC
     FM310630 00000KT 2SM BR FEW004
     FM310900 00000KT 1SM BR BKN002
      TEMPO 3109/3112 1/4SM FG VV002
     FM311500 16008KT P6SM BKN035=

USA.gov is the U.S. government's official web portal to all federal, state and local government web resources and services.